• Join FlightAware (Why Join?)
  • Login
  • US Flag 
06:33AM EDT


 

Airport Tracker/Info


-or-


 

Live Flight TrackerFlight Track Log ✈ DAL3759 ✈ 12-Jun-2013 ✈ KFSD - KDTW

Flight Track Log - Related Links

Times and Time Zones

All times are in EDT time to prevent confusion due to time zone crossing. See the DAL3759 flight status page for this flight to view local times or setup timezone preferences in your user account.

Time Position Orientation Groundspeed Altitude Reporting Facility
EDT Latitude Longitude Course Direction KTS MPH feet Rate Location/Type
07:23AM 43.6158 -96.7369 162° South 140 161 3,000  Level Minneapolis Center
07:24AM 43.5842 -96.6753 125° Southeast 228 262 4,600 1,620 Climbing Minneapolis Center
07:25AM 43.3778 -96.6555 160° South  Level FlightAware Approximate
07:25AM 43.5119 -96.6481 165° South 252 290 6,400  Level Minneapolis Center
07:26AM 43.2702 -96.6052 162° South  Level FlightAware Approximate
07:26AM 43.4356 -96.6164 163° South 275 316 8,700  Level Minneapolis Center
07:27AM 43.1621 -96.5570 162° South  Level FlightAware Approximate
07:27AM 43.3581 -96.5856 164° South 287 330 10,500  Level Minneapolis Center
07:28AM 43.0519 -96.5069 162° South  Level FlightAware Approximate
07:28AM 43.2700 -96.5508 164° South 317 365 11,600  Level Minneapolis Center
07:29AM 43.1750 -96.5139 164° South 345 397 12,900 1,380 Climbing Minneapolis Center
07:30AM 43.0792 -96.4733 163° South 357 411 14,400 1,260 Climbing Minneapolis Center
07:31AM 42.9833 -96.4272 161° South 365 420 15,500 960 Climbing Minneapolis Center
07:32AM 42.9333 -96.2881 116° Southeast 403 464 16,400 900 Climbing Minneapolis Center
07:33AM 42.8875 -96.1425 113° Southeast 414 476 17,400 1,080 Climbing Minneapolis Center
07:34AM 42.8425 -95.9956 113° Southeast 420 483 18,600 1,080 Climbing Minneapolis Center
07:35AM 42.7978 -95.8469 112° Southeast 425 489 19,600 1,140 Climbing Minneapolis Center
07:36AM 42.7419 -95.6692 113° Southeast 426 490 20,900 1,080 Climbing Minneapolis Center
07:37AM 42.6981 -95.5278 113° Southeast 430 495 21,800 900 Climbing Minneapolis Center
07:38AM 42.6503 -95.3781 113° Southeast 431 496 22,800 900 Climbing Minneapolis Center
07:39AM 42.6033 -95.2286 113° Southeast 431 496 23,700 780 Climbing Minneapolis Center
07:40AM 42.5556 -95.0811 114° Southeast 428 493 24,400 720 Climbing Minneapolis Center
07:41AM 42.5067 -94.9286 113° Southeast 434 499 25,200 720 Climbing Minneapolis Center
07:42AM 42.4569 -94.7744 114° Southeast 441 507 25,900 660 Climbing Minneapolis Center
07:43AM 42.4069 -94.6200 114° Southeast 445 512 26,600 540 Climbing Minneapolis Center
07:44AM 42.3564 -94.4669 114° Southeast 445 512 27,000 180 Climbing Minneapolis Center
07:45AM 42.3075 -94.3158 114° Southeast 440 506 27,000  Level Minneapolis Center
07:46AM 42.2483 -94.1411 115° Southeast 445 512 27,000  Level Minneapolis Center
07:47AM 42.2053 -94.0089 114° Southeast 449 517 27,000  Level Minneapolis Center
07:48AM 42.1469 -93.8325 114° Southeast 456 525 27,000  Level Minneapolis Center
07:49AM 42.0958 -93.6800 114° Southeast 454 522 27,000  Level Minneapolis Center
07:50AM 42.0439 -93.5256 114° Southeast 457 526 27,000  Level Minneapolis Center
07:51AM 41.9911 -93.3703 115° Southeast 459 528 27,000  Level Minneapolis Center
07:52AM 41.9300 -93.1944 115° Southeast 467 537 27,000  Level Minneapolis Center
07:53AM 41.8753 -93.0358 115° Southeast 471 542 27,000  Level Minneapolis Center
07:54AM 41.8197 -92.8769 115° Southeast 472 543 27,000  Level Minneapolis Center
07:55AM 41.7933 -92.7994 115° Southeast 472 543 27,000  Level Chicago Center
07:56AM 41.7389 -92.6417 115° Southeast 473 544 27,000  Level Chicago Center
07:57AM 41.6742 -92.4558 115° Southeast 465 535 27,000  Level Chicago Center
07:58AM 41.6214 -92.3058 115° Southeast 454 522 27,000  Level Chicago Center
07:59AM 41.5678 -92.1556 115° Southeast 455 524 27,000  Level Chicago Center
08:00AM 41.5139 -92.0039 115° Southeast 458 527 27,000  Level Chicago Center
08:01AM 41.4597 -91.8519 115° Southeast 459 528 27,000  Level Chicago Center
08:02AM 41.3936 -91.6700 116° Southeast 461 531 27,000  Level Chicago Center
08:03AM 41.3386 -91.5169 116° Southeast 464 534 27,000  Level Chicago Center
08:04AM 41.2822 -91.3636 116° Southeast 466 536 27,000  Level Chicago Center
08:05AM 41.2375 -91.2153 112° Southeast 468 539 27,000  Level Chicago Center
08:06AM 41.2358 -91.0053 91° East 472 543 27,000  Level Chicago Center
08:07AM 41.2344 -90.8300 91° East 472 543 27,000  Level Chicago Center
08:08AM 41.2297 -90.6569 92° East 469 540 27,000  Level Chicago Center
08:09AM 41.2261 -90.4828 92° East 469 540 27,000  Level Chicago Center
08:10AM 41.2217 -90.3086 92° East 470 541 27,000  Level Chicago Center
08:11AM 41.2167 -90.1361 92° East 467 537 27,000  Level Chicago Center
08:12AM 41.2128 -89.9619 92° East 468 539 27,000  Level Chicago Center
08:13AM 41.2350 -89.7925 80° East 469 540 27,000  Level Chicago Center
08:14AM 41.2919 -89.5989 69° East 468 539 27,000  Level Chicago Center
08:15AM 41.3394 -89.4389 68° East 463 533 27,000  Level Chicago Center
08:16AM 41.3867 -89.2772 69° East 467 537 27,000  Level Chicago Center
08:17AM 41.4344 -89.1100 69° East 464 534 27,000  Level Chicago Center
08:18AM 41.4817 -88.9494 69° East 466 536 27,000  Level Chicago Center
08:19AM 41.5267 -88.7897 69° East 463 533 27,000  Level Chicago Center
08:20AM 41.5731 -88.6283 69° East 468 539 27,000  Level Chicago Center
08:21AM 41.6189 -88.4692 69° East 460 529 27,000  Level Chicago Center
08:22AM 41.6731 -88.2761 69° East 462 532 27,000  Level Chicago Center
08:23AM 41.7194 -88.1150 69° East 463 533 27,000  Level Chicago Center
08:24AM 41.7631 -87.9542 70° East 461 531 27,000  Level Chicago Center
08:25AM 41.8067 -87.7956 70° East 454 522 27,000  Level Chicago Center
08:26AM 41.8506 -87.6350 70° East 459 528 27,000  Level Chicago Center
08:28AM 41.8944 -87.4747 70° East 459 528 27,000  Level Chicago Center
08:29AM 41.9392 -87.3153 69° East 460 529 27,000  Level Chicago Center
08:30AM 41.9914 -87.1208 70° East 463 533 27,000  Level Chicago Center
08:31AM 42.0042 -86.9469 84° East 474 545 27,000  Level Chicago Center
08:32AM 42.0106 -86.7722 87° East 472 543 27,000 -600 Level Chicago Center
08:33AM 42.0147 -86.5922 88° East 478 550 25,800 -1,260 Descending Chicago Center
08:34AM 42.0217 -86.4025 87° East 501 577 24,500 -1,140 Descending Chicago Center
08:35AM 42.0286 -86.2108 87° East 511 588 23,500 -1,020 Descending Chicago Center
08:36AM 42.0344 -86.0256 88° East 499 574 22,500 -1,080 Descending Chicago Center
08:37AM 42.0386 -85.8242 88° East 484 557 21,400 -1,200 Descending Chicago Center
08:38AM 42.0436 -85.6525 88° East 468 539 20,100 -720 Descending Chicago Center
08:39AM 42.0472 -85.4931 88° East 433 498 20,000 -60 Descending Chicago Center
08:40AM 42.0525 -85.3128 88° East 408 470 20,000 -540 Level Chicago Center
08:41AM 42.0558 -85.1589 88° East 415 478 19,000 -540 Descending Chicago Center
08:42AM 42.0583 -85.0086 89° East 409 471 19,000 -240 Level Chicago Center
08:43AM 42.0417 -84.8678 99° East 400 460 18,600 -960 Descending Chicago Center
08:44AM 41.9594 -84.7989 148° Southeast 372 428 17,100 -1,620 Descending Chicago Center
08:45AM 41.8547 -84.7181 150° Southeast 361 415 15,300 -1,380 Descending Chicago Center
08:46AM 41.7711 -84.6544 150° Southeast 349 402 14,300 -1,260 Descending Chicago Center
08:47AM 41.6869 -84.5892 150° Southeast 348 400 12,700 -1,380 Descending Chicago Center
08:48AM 41.6369 -84.5483 149° Southeast 345 397 12,000 -720 Descending Cleveland Center
08:48AM 41.6228 -84.5050 114° Southeast 353 406 12,000  Level Chicago Center
08:49AM 41.5850 -84.3869 113° Southeast 348 400 12,000  Level Chicago Center
08:50AM 41.6350 -84.2908 55° Northeast 325 374 12,000  Level Chicago Center
08:51AM 41.6742 -84.2419 43° Northeast 260 299 12,000  Level Cleveland Center
08:51AM 41.7222 -84.1778 45° Northeast 361 415 12,000  Level Cleveland Center
08:52AM 41.7417 -84.1539 43° Northeast 289 333 12,000  Level Cleveland Center
08:52AM 41.7961 -84.0844 44° Northeast 375 432 12,000  Level Cleveland Center
08:53AM 41.8156 -84.0547 49° Northeast 333 383 12,000  Level Cleveland Center
08:53AM 41.8661 -83.9711 51° Northeast 377 434 12,000  Level Cleveland Center
08:54AM 41.8836 -83.9469 46° Northeast 358 412 12,000  Level Cleveland Center
08:55AM 41.9419 -83.8747 43° Northeast 368 423 12,000  Level Cleveland Center
08:55AM 41.9572 -83.8531 47° Northeast 364 419 12,000  Level Cleveland Center
08:56AM 42.0197 -83.7781 42° Northeast 346 398 12,000  Level Cleveland Center
08:57AM 42.0781 -83.6997 45° Northeast 314 361 12,000  Level Cleveland Center
08:57AM 42.0911 -83.6836 42° Northeast 333 383 12,000  Level Cleveland Center
08:58AM 42.1539 -83.5997 45° Northeast 313 360 12,000  Level Cleveland Center
08:59AM 42.2072 -83.5519 34° Northeast 259 298 12,000 -900 Level Cleveland Center
09:00AM 42.2706 -83.5183 21° North 229 264 10,500 -1,560 Descending Cleveland Center
09:01AM 42.3281 -83.4733 30° Northeast 236 272 8,900 -1,560 Descending Cleveland Center
09:02AM 42.3814 -83.4250 34° Northeast 222 255 7,400 -1,260 Descending Cleveland Center
09:03AM 42.4300 -83.3908 27° Northeast 195 224 6,500 -720 Descending Cleveland Center
09:04AM 42.4808 -83.3592 25° Northeast 200 230 6,000 -360 Descending Cleveland Center
09:06AM 42.4833 -83.2522 88° East 204 235 5,500 -240 Descending Cleveland Center